createdAt,value
2022-12-31T00:01:30.288Z,100300.00
2022-12-31T00:03:59.580Z,100310.00
2022-12-31T00:06:33.318Z,100332.00
2022-12-31T00:09:06.822Z,100343.00
2022-12-31T00:11:36.951Z,100338.00
2022-12-31T00:14:06.717Z,100340.00
2022-12-31T00:16:38.434Z,100345.00
2022-12-31T00:19:11.464Z,100343.00
2022-12-31T00:21:41.793Z,100349.00
2022-12-31T00:24:13.131Z,100349.00
2022-12-31T00:26:41.778Z,100361.00
2022-12-31T00:29:11.644Z,100355.00
2022-12-31T00:31:40.745Z,100364.00
2022-12-31T00:34:09.399Z,100364.00
2022-12-31T00:36:42.597Z,100364.00
2022-12-31T00:39:12.265Z,100355.00
2022-12-31T00:41:43.322Z,100366.00
2022-12-31T00:44:13.379Z,100372.00
2022-12-31T00:49:10.430Z,100369.00
2022-12-31T00:51:40.397Z,100375.00
2022-12-31T00:54:10.231Z,100365.00
2022-12-31T00:56:38.924Z,100377.00
2022-12-31T00:59:07.710Z,100372.00
2022-12-31T01:01:39.436Z,100364.00
2022-12-31T01:04:12.558Z,100370.00
2022-12-31T01:06:43.782Z,100372.00
2022-12-31T01:09:14.432Z,100374.00
2022-12-31T01:11:43.158Z,100376.00
2022-12-31T01:14:14.436Z,100385.00
2022-12-31T01:16:46.987Z,100377.00
2022-12-31T01:19:23.205Z,100382.00
2022-12-31T01:21:54.600Z,100390.00
2022-12-31T01:24:23.507Z,100393.00
2022-12-31T01:26:52.462Z,100392.00
2022-12-31T01:29:21.379Z,100392.00
2022-12-31T01:31:50.107Z,100390.00
2022-12-31T01:34:18.819Z,100391.00
2022-12-31T01:36:47.575Z,100407.00
2022-12-31T01:39:17.601Z,100411.00
2022-12-31T01:41:48.832Z,100402.00
2022-12-31T01:44:53.840Z,100420.00
2022-12-31T01:47:36.342Z,100402.00
2022-12-31T01:50:13.865Z,100404.00
2022-12-31T01:52:48.371Z,100394.00
2022-12-31T01:55:22.687Z,100415.00
2022-12-31T01:57:55.935Z,100413.00
2022-12-31T02:00:24.830Z,100414.00
2022-12-31T02:02:54.182Z,100408.00
2022-12-31T02:05:30.599Z,100412.00
2022-12-31T02:08:00.118Z,100419.00
2022-12-31T02:10:30.134Z,100416.00
2022-12-31T02:12:59.553Z,100409.00
2022-12-31T02:15:48.387Z,100414.00
2022-12-31T02:18:32.087Z,100426.00
2022-12-31T02:21:35.015Z,100423.00
2022-12-31T02:24:47.375Z,100420.00
2022-12-31T02:27:35.289Z,100420.00
2022-12-31T02:30:16.312Z,100420.00
2022-12-31T02:33:12.496Z,100419.00
2022-12-31T02:35:50.088Z,100425.00
2022-12-31T02:38:24.720Z,100425.00
2022-12-31T02:40:55.330Z,100429.00
2022-12-31T02:43:24.049Z,100431.00
2022-12-31T02:46:13.329Z,100442.00
2022-12-31T02:48:50.298Z,100446.00
2022-12-31T02:51:37.025Z,100440.00
2022-12-31T02:54:34.353Z,100440.00
2022-12-31T02:57:12.767Z,100435.00
2022-12-31T03:00:10.748Z,100434.00
2022-12-31T03:02:44.802Z,100440.00
2022-12-31T03:05:16.443Z,100441.00
2022-12-31T03:07:47.371Z,100448.00
2022-12-31T03:10:16.095Z,100449.00
2022-12-31T03:12:48.565Z,100453.00
2022-12-31T03:15:21.522Z,100443.00
2022-12-31T03:17:56.552Z,100440.00
2022-12-31T03:20:48.152Z,100438.00
2022-12-31T03:23:21.655Z,100448.00
2022-12-31T03:25:49.732Z,100442.00
2022-12-31T03:28:20.988Z,100443.00
2022-12-31T03:30:55.796Z,100436.00
2022-12-31T03:33:27.513Z,100438.00
2022-12-31T03:35:56.702Z,100436.00
2022-12-31T03:38:25.652Z,100436.00
2022-12-31T03:40:54.955Z,100435.00
2022-12-31T03:43:24.110Z,100432.00
2022-12-31T03:45:54.314Z,100431.00
2022-12-31T03:48:25.485Z,100426.00
2022-12-31T03:50:54.144Z,100432.00
2022-12-31T03:53:22.743Z,100431.00
2022-12-31T03:55:53.400Z,100419.00
2022-12-31T03:58:23.297Z,100423.00
2022-12-31T04:00:52.656Z,100435.00
2022-12-31T04:03:21.386Z,100419.00
2022-12-31T04:05:56.185Z,100424.00
2022-12-31T04:08:25.173Z,100427.00
2022-12-31T04:10:53.838Z,100424.00
2022-12-31T04:13:22.446Z,100417.00
2022-12-31T04:15:52.497Z,100409.00
2022-12-31T04:18:21.121Z,100413.00
2022-12-31T04:20:49.785Z,100420.00
2022-12-31T04:23:19.979Z,100425.00
2022-12-31T04:25:48.650Z,100423.00
2022-12-31T04:28:17.427Z,100428.00
2022-12-31T04:30:46.054Z,100429.00
2022-12-31T04:33:14.667Z,100426.00
2022-12-31T04:35:43.270Z,100424.00
2022-12-31T04:38:11.944Z,100427.00
2022-12-31T04:41:02.061Z,100428.00
2022-12-31T04:43:30.723Z,100425.00
2022-12-31T04:45:59.321Z,100433.00
2022-12-31T04:48:27.923Z,100427.00
2022-12-31T04:50:58.235Z,100433.00
2022-12-31T04:53:29.109Z,100426.00
2022-12-31T04:56:05.976Z,100421.00
2022-12-31T04:58:34.856Z,100418.00
2022-12-31T05:01:03.887Z,100408.00
2022-12-31T05:03:32.972Z,100419.00
2022-12-31T05:06:03.319Z,100407.00
2022-12-31T05:08:32.972Z,100403.00
2022-12-31T05:11:03.012Z,100398.00
2022-12-31T05:13:33.756Z,100396.00
2022-12-31T05:16:02.905Z,100398.00
2022-12-31T05:18:32.516Z,100397.00
2022-12-31T05:21:01.483Z,100381.00
2022-12-31T05:23:30.365Z,100381.00
2022-12-31T05:26:04.323Z,100382.00
2022-12-31T05:28:37.932Z,100373.00
2022-12-31T05:31:06.913Z,100372.00
2022-12-31T05:33:35.580Z,100377.00
2022-12-31T05:36:04.332Z,100366.00
2022-12-31T05:38:32.945Z,100368.00
2022-12-31T05:41:06.431Z,100369.00
2022-12-31T05:43:37.018Z,100372.00
2022-12-31T05:46:07.042Z,100363.00
2022-12-31T05:48:35.761Z,100368.00
2022-12-31T05:51:04.393Z,100381.00
2022-12-31T05:53:34.549Z,100397.00
2022-12-31T05:56:03.203Z,100393.00
2022-12-31T05:58:31.810Z,100386.00
2022-12-31T06:01:02.146Z,100395.00
2022-12-31T06:03:30.910Z,100390.00
2022-12-31T06:06:02.417Z,100383.00
2022-12-31T06:08:31.040Z,100387.00
2022-12-31T06:10:59.675Z,100383.00
2022-12-31T06:13:28.308Z,100380.00
2022-12-31T06:15:56.989Z,100375.00
2022-12-31T06:18:27.004Z,100388.00
2022-12-31T06:20:55.573Z,100390.00
2022-12-31T06:23:24.160Z,100380.00
2022-12-31T06:25:52.752Z,100382.00
2022-12-31T06:28:21.454Z,100377.00
2022-12-31T06:30:50.546Z,100375.00
2022-12-31T06:33:20.000Z,100387.00
2022-12-31T06:35:50.062Z,100388.00
2022-12-31T06:38:18.703Z,100383.00
2022-12-31T06:40:47.325Z,100388.00
2022-12-31T06:43:16.137Z,100393.00
2022-12-31T06:45:44.856Z,100402.00
2022-12-31T06:48:13.473Z,100392.00
2022-12-31T06:50:42.190Z,100392.00
2022-12-31T06:53:12.178Z,100396.00
2022-12-31T06:55:42.294Z,100392.00
2022-12-31T06:58:15.337Z,100388.00
2022-12-31T07:00:56.615Z,100385.00
2022-12-31T07:03:39.654Z,100379.00
2022-12-31T07:06:16.300Z,100378.00
2022-12-31T07:08:57.846Z,100360.00
2022-12-31T07:11:33.609Z,100359.00
2022-12-31T07:14:16.371Z,100349.00
2022-12-31T07:17:00.104Z,100351.00
2022-12-31T07:19:45.716Z,100347.00
2022-12-31T07:22:18.004Z,100346.00
2022-12-31T07:24:48.998Z,100353.00
2022-12-31T07:27:35.441Z,100335.00
2022-12-31T07:30:10.792Z,100355.00
2022-12-31T07:33:04.226Z,100344.00
2022-12-31T07:35:46.281Z,100351.00
2022-12-31T07:38:27.807Z,100351.00
2022-12-31T07:41:11.100Z,100331.00
2022-12-31T07:43:58.172Z,100325.00
2022-12-31T07:46:37.116Z,100334.00
2022-12-31T07:49:11.182Z,100323.00
2022-12-31T07:51:41.209Z,100325.00
2022-12-31T07:54:13.846Z,100322.00
2022-12-31T07:56:45.671Z,100312.00
2022-12-31T07:59:30.408Z,100316.00
2022-12-31T08:02:12.087Z,100312.00
2022-12-31T08:04:53.767Z,100316.00
2022-12-31T08:07:37.266Z,100316.00
2022-12-31T08:10:18.192Z,100303.00
2022-12-31T08:12:51.407Z,100301.00
2022-12-31T08:15:26.871Z,100301.00
2022-12-31T08:17:59.425Z,100303.00
2022-12-31T08:20:30.950Z,100300.00
2022-12-31T08:23:22.951Z,100296.00
2022-12-31T08:26:29.007Z,100296.00
2022-12-31T08:29:18.201Z,100293.00
2022-12-31T08:31:59.568Z,100286.00
2022-12-31T08:34:36.605Z,100280.00
2022-12-31T08:37:14.483Z,100281.00
2022-12-31T08:40:02.207Z,100262.00
2022-12-31T08:42:40.896Z,100251.00
2022-12-31T08:45:21.501Z,100238.00
2022-12-31T08:48:04.450Z,100246.00
2022-12-31T08:50:33.974Z,100244.00
2022-12-31T08:53:03.559Z,100234.00
2022-12-31T08:55:33.155Z,100227.00
2022-12-31T08:58:23.844Z,100220.00
2022-12-31T09:00:59.737Z,100208.00
2022-12-31T09:03:46.121Z,100199.00
2022-12-31T09:06:28.355Z,100177.00
2022-12-31T09:09:07.482Z,100192.00
2022-12-31T09:11:54.631Z,100179.00
2022-12-31T09:14:50.946Z,100174.00
2022-12-31T09:17:47.521Z,100167.00
2022-12-31T09:20:36.367Z,100165.00
2022-12-31T09:23:12.490Z,100157.00
2022-12-31T09:25:52.939Z,100160.00
2022-12-31T09:28:40.545Z,100172.00
2022-12-31T09:31:17.675Z,100165.00
2022-12-31T09:33:55.901Z,100147.00
2022-12-31T09:36:33.219Z,100131.00
2022-12-31T09:39:13.218Z,100127.00
2022-12-31T09:42:28.619Z,100114.00
2022-12-31T09:45:56.578Z,100117.00
2022-12-31T09:49:10.655Z,100108.00
2022-12-31T09:51:57.051Z,100105.00
2022-12-31T09:54:52.437Z,100081.00
2022-12-31T09:57:42.013Z,100089.00
2022-12-31T10:00:18.585Z,100087.00
2022-12-31T10:03:09.119Z,100095.00
2022-12-31T10:06:00.676Z,100090.00
2022-12-31T10:09:03.744Z,100081.00
2022-12-31T10:11:58.285Z,100065.00
2022-12-31T10:14:48.797Z,100068.00
2022-12-31T10:17:37.056Z,100073.00
2022-12-31T10:20:31.906Z,100064.00
2022-12-31T10:23:33.986Z,100059.00
2022-12-31T10:26:38.899Z,100063.00
2022-12-31T10:29:25.511Z,100064.00
2022-12-31T10:32:16.400Z,100065.00
2022-12-31T10:34:57.150Z,100064.00
2022-12-31T10:37:36.882Z,100048.00
2022-12-31T10:40:25.939Z,100027.00
2022-12-31T10:43:32.933Z,99997.00
2022-12-31T10:46:54.979Z,99995.00
2022-12-31T10:50:10.127Z,99988.00
2022-12-31T10:53:47.260Z,99982.00
2022-12-31T10:57:07.282Z,99997.00
2022-12-31T11:00:09.110Z,100006.00
2022-12-31T11:03:44.176Z,100010.00
2022-12-31T11:07:03.225Z,100010.00
2022-12-31T11:10:15.894Z,99995.00
2022-12-31T11:13:35.787Z,99987.00
2022-12-31T11:16:34.782Z,99992.00
2022-12-31T11:19:17.826Z,99994.00
2022-12-31T11:22:11.295Z,99992.00
2022-12-31T11:25:07.226Z,99971.00
2022-12-31T11:28:04.266Z,99970.00
2022-12-31T11:30:50.325Z,99969.00
2022-12-31T11:33:35.058Z,99975.00
2022-12-31T11:36:18.543Z,99959.00
2022-12-31T11:38:53.461Z,99952.00
2022-12-31T11:41:36.352Z,99959.00
2022-12-31T11:44:20.040Z,99966.00
2022-12-31T11:47:10.198Z,99961.00
2022-12-31T11:50:07.622Z,99942.00
2022-12-31T11:52:55.667Z,99941.00
2022-12-31T11:55:45.594Z,99941.00
2022-12-31T11:58:18.023Z,99939.00
2022-12-31T12:00:57.807Z,99928.00
2022-12-31T12:03:27.073Z,99928.00
2022-12-31T12:05:58.939Z,99937.00
2022-12-31T12:08:29.260Z,99908.00
2022-12-31T12:11:07.779Z,99898.00
2022-12-31T12:13:36.453Z,99884.00
2022-12-31T12:16:09.550Z,99875.00
2022-12-31T12:18:46.194Z,99860.00
2022-12-31T12:21:18.754Z,99866.00
2022-12-31T12:23:57.781Z,99859.00
2022-12-31T12:26:43.186Z,99851.00
2022-12-31T12:29:14.279Z,99831.00
2022-12-31T12:31:55.206Z,99852.00
2022-12-31T12:34:27.139Z,99863.00
2022-12-31T12:36:56.576Z,99855.00
2022-12-31T12:39:27.741Z,99871.00
2022-12-31T12:42:09.528Z,99865.00
2022-12-31T12:44:38.541Z,99849.00
2022-12-31T12:47:16.439Z,99845.00
2022-12-31T12:49:48.980Z,99853.00
2022-12-31T12:52:57.847Z,99831.00
2022-12-31T12:55:42.395Z,99840.00
2022-12-31T12:58:25.038Z,99835.00
2022-12-31T13:01:10.613Z,99827.00
2022-12-31T13:04:34.669Z,99830.00
2022-12-31T13:07:21.902Z,99823.00
2022-12-31T13:10:17.180Z,99835.00
2022-12-31T13:15:54.110Z,99845.00
2022-12-31T13:18:45.380Z,99839.00
2022-12-31T13:21:46.330Z,99844.00
2022-12-31T13:24:35.636Z,99845.00
2022-12-31T13:27:18.628Z,99842.00
2022-12-31T13:29:49.387Z,99834.00
2022-12-31T13:32:24.906Z,99825.00
2022-12-31T13:35:01.399Z,99817.00
2022-12-31T13:37:40.666Z,99806.00
2022-12-31T13:40:25.126Z,99796.00
2022-12-31T13:43:01.320Z,99781.00
2022-12-31T13:45:40.367Z,99782.00
2022-12-31T13:48:19.773Z,99788.00
2022-12-31T13:50:59.019Z,99771.00
2022-12-31T13:53:39.643Z,99774.00
2022-12-31T13:56:17.943Z,99764.00
2022-12-31T13:58:53.276Z,99762.00
2022-12-31T14:01:33.629Z,99760.00
2022-12-31T14:04:14.054Z,99777.00
2022-12-31T14:06:50.765Z,99765.00
2022-12-31T14:09:25.871Z,99777.00
2022-12-31T14:12:20.835Z,99772.00
2022-12-31T14:15:04.651Z,99773.00
2022-12-31T14:17:44.855Z,99766.00
2022-12-31T14:20:29.170Z,99765.00
2022-12-31T14:23:09.552Z,99762.00
2022-12-31T14:25:45.436Z,99761.00
2022-12-31T14:28:22.580Z,99745.00
2022-12-31T14:31:00.268Z,99749.00
2022-12-31T14:33:53.780Z,99748.00
2022-12-31T14:36:38.308Z,99752.00
2022-12-31T14:39:26.526Z,99757.00
2022-12-31T14:42:20.048Z,99762.00
2022-12-31T14:45:05.725Z,99755.00
2022-12-31T14:47:52.348Z,99760.00
2022-12-31T14:50:27.413Z,99766.00
2022-12-31T14:53:09.208Z,99766.00
2022-12-31T14:55:40.808Z,99754.00
2022-12-31T14:58:28.194Z,99752.00
2022-12-31T15:01:00.344Z,99748.00
2022-12-31T15:03:44.750Z,99747.00
2022-12-31T15:06:41.933Z,99750.00
2022-12-31T15:09:32.393Z,99737.00
2022-12-31T15:12:23.248Z,99740.00
2022-12-31T15:15:33.525Z,99741.00
2022-12-31T15:18:28.654Z,99748.00
2022-12-31T15:21:42.641Z,99745.00
2022-12-31T15:24:24.126Z,99743.00
2022-12-31T15:26:57.488Z,99743.00
2022-12-31T15:29:32.171Z,99734.00
2022-12-31T15:32:06.114Z,99730.00
2022-12-31T15:34:37.610Z,99725.00
2022-12-31T15:37:28.015Z,99724.00
2022-12-31T15:40:19.109Z,99724.00
2022-12-31T15:42:55.174Z,99730.00
2022-12-31T15:45:32.935Z,99730.00
2022-12-31T15:48:10.115Z,99714.00
2022-12-31T15:50:41.070Z,99727.00
2022-12-31T15:53:18.526Z,99715.00
2022-12-31T15:55:53.292Z,99709.00
2022-12-31T15:58:27.581Z,99715.00
2022-12-31T16:01:10.103Z,99709.00
2022-12-31T16:03:50.390Z,99721.00
2022-12-31T16:06:20.135Z,99720.00
2022-12-31T16:08:51.267Z,99726.00
2022-12-31T16:11:21.318Z,99718.00
2022-12-31T16:13:54.854Z,99714.00
2022-12-31T16:16:26.555Z,99703.00
2022-12-31T16:18:59.033Z,99700.00
2022-12-31T16:21:33.756Z,99705.00
2022-12-31T16:24:08.452Z,99700.00
2022-12-31T16:26:46.528Z,99700.00
2022-12-31T16:29:18.340Z,99688.00
2022-12-31T16:31:49.889Z,99693.00
2022-12-31T16:34:23.435Z,99693.00
2022-12-31T16:37:01.208Z,99690.00
2022-12-31T16:39:33.888Z,99686.00
2022-12-31T16:42:19.484Z,99695.00
2022-12-31T16:44:49.648Z,99678.00
2022-12-31T16:47:23.099Z,99682.00
2022-12-31T16:50:04.130Z,99671.00
2022-12-31T16:52:38.026Z,99679.00
2022-12-31T16:55:10.820Z,99670.00
2022-12-31T16:57:42.733Z,99642.00
2022-12-31T17:00:20.848Z,99662.00
2022-12-31T17:02:59.687Z,99661.00
2022-12-31T17:05:30.568Z,99657.00
2022-12-31T17:07:59.332Z,99641.00
2022-12-31T17:10:36.179Z,99641.00
2022-12-31T17:13:28.469Z,99640.00
2022-12-31T17:15:59.355Z,99637.00
2022-12-31T17:18:37.191Z,99645.00
2022-12-31T17:21:11.761Z,99649.00
2022-12-31T17:23:42.544Z,99644.00
2022-12-31T17:26:14.804Z,99627.00
2022-12-31T17:28:48.000Z,99629.00
2022-12-31T17:31:34.141Z,99630.00
2022-12-31T17:34:21.902Z,99630.00
2022-12-31T17:37:01.368Z,99629.00
2022-12-31T17:39:45.224Z,99626.00
2022-12-31T17:42:19.013Z,99630.00
2022-12-31T17:44:48.030Z,99639.00
2022-12-31T17:47:16.709Z,99647.00
2022-12-31T17:49:47.341Z,99647.00
2022-12-31T17:52:18.045Z,99647.00
2022-12-31T17:54:47.093Z,99648.00
2022-12-31T17:57:28.938Z,99645.00
2022-12-31T17:59:58.206Z,99631.00
2022-12-31T18:02:26.949Z,99638.00
2022-12-31T18:04:56.283Z,99635.00
2022-12-31T18:07:26.801Z,99635.00
2022-12-31T18:09:55.515Z,99632.00
2022-12-31T18:12:24.886Z,99622.00
2022-12-31T18:14:53.799Z,99612.00
2022-12-31T18:17:22.524Z,99619.00
2022-12-31T18:20:06.848Z,99609.00
2022-12-31T18:22:37.644Z,99601.00
2022-12-31T18:25:07.879Z,99589.00
2022-12-31T18:27:36.736Z,99568.00
2022-12-31T18:30:07.342Z,99560.00
2022-12-31T18:32:38.667Z,99540.00
2022-12-31T18:35:33.377Z,99567.00
2022-12-31T18:38:07.215Z,99561.00
2022-12-31T18:40:35.976Z,99574.00
2022-12-31T18:43:05.273Z,99572.00
2022-12-31T18:45:34.267Z,99585.00
2022-12-31T18:48:03.132Z,99579.00
2022-12-31T18:50:31.925Z,99572.00
2022-12-31T18:53:00.550Z,99572.00
2022-12-31T18:55:40.334Z,99585.00
2022-12-31T18:58:09.628Z,99577.00
2022-12-31T19:00:39.063Z,99587.00
2022-12-31T19:03:07.924Z,99589.00
2022-12-31T19:05:40.216Z,99572.00
2022-12-31T19:08:09.779Z,99573.00
2022-12-31T19:10:40.300Z,99576.00
2022-12-31T19:13:13.567Z,99571.00
2022-12-31T19:15:46.378Z,99566.00
2022-12-31T19:18:15.129Z,99566.00
2022-12-31T19:20:43.877Z,99569.00
2022-12-31T19:23:18.205Z,99571.00
2022-12-31T19:25:50.285Z,99568.00
2022-12-31T19:28:24.000Z,99561.00
2022-12-31T19:30:53.036Z,99562.00
2022-12-31T19:33:22.129Z,99555.00
2022-12-31T19:35:51.093Z,99552.00
2022-12-31T19:38:23.949Z,99545.00
2022-12-31T19:40:55.447Z,99539.00
2022-12-31T19:43:25.357Z,99536.00
2022-12-31T19:45:54.932Z,99533.00
2022-12-31T19:48:32.658Z,99527.00
2022-12-31T19:51:02.240Z,99538.00
2022-12-31T19:53:30.967Z,99542.00
2022-12-31T19:56:01.915Z,99539.00
2022-12-31T19:58:30.718Z,99542.00
2022-12-31T20:01:03.204Z,99542.00
2022-12-31T20:03:33.455Z,99529.00
2022-12-31T20:06:05.523Z,99528.00
2022-12-31T20:08:35.197Z,99527.00
2022-12-31T20:11:13.581Z,99509.00
2022-12-31T20:13:43.593Z,99507.00
2022-12-31T20:16:15.405Z,99514.00
2022-12-31T20:18:46.460Z,99502.00
2022-12-31T20:21:19.169Z,99514.00
2022-12-31T20:23:49.842Z,99509.00
2022-12-31T20:26:21.452Z,99497.00
2022-12-31T20:28:50.958Z,99498.00
2022-12-31T20:31:24.066Z,99499.00
2022-12-31T20:33:54.298Z,99500.00
2022-12-31T20:36:24.288Z,99498.00
2022-12-31T20:38:53.086Z,99485.00
2022-12-31T20:41:24.986Z,99483.00
2022-12-31T20:43:53.683Z,99482.00
2022-12-31T20:46:25.206Z,99481.00
2022-12-31T20:48:57.340Z,99468.00
2022-12-31T20:51:27.440Z,99467.00
2022-12-31T20:54:00.085Z,99467.00
2022-12-31T20:56:33.233Z,99463.00
2022-12-31T20:59:02.468Z,99460.00
2022-12-31T21:01:48.229Z,99447.00
2022-12-31T21:04:21.021Z,99453.00
2022-12-31T21:06:49.791Z,99428.00
2022-12-31T21:09:18.480Z,99411.00
2022-12-31T21:12:05.890Z,99421.00
2022-12-31T21:14:36.552Z,99415.00
2022-12-31T21:17:07.316Z,99414.00
2022-12-31T21:19:36.043Z,99403.00
2022-12-31T21:22:04.763Z,99403.00
2022-12-31T21:24:33.474Z,99397.00
2022-12-31T21:27:03.522Z,99407.00
2022-12-31T21:29:34.841Z,99417.00
2022-12-31T21:32:04.508Z,99408.00
2022-12-31T21:34:33.360Z,99393.00
2022-12-31T21:37:02.030Z,99404.00
2022-12-31T21:39:30.663Z,99392.00
2022-12-31T21:41:59.350Z,99393.00
2022-12-31T21:44:29.523Z,99388.00
2022-12-31T21:47:39.811Z,99380.00
2022-12-31T21:50:10.619Z,99380.00
2022-12-31T21:52:43.779Z,99370.00
2022-12-31T21:55:31.338Z,99370.00
2022-12-31T21:58:25.834Z,99365.00
2022-12-31T22:01:10.123Z,99362.00
2022-12-31T22:03:38.955Z,99333.00
2022-12-31T22:06:12.265Z,99339.00
2022-12-31T22:08:42.608Z,99343.00
2022-12-31T22:11:13.390Z,99344.00
2022-12-31T22:13:42.471Z,99333.00
2022-12-31T22:16:14.167Z,99340.00
2022-12-31T22:18:44.719Z,99347.00
2022-12-31T22:21:19.522Z,99348.00
2022-12-31T22:23:52.533Z,99339.00
2022-12-31T22:26:24.642Z,99325.00
2022-12-31T22:28:58.994Z,99319.00
2022-12-31T22:31:31.234Z,99323.00
2022-12-31T22:34:00.855Z,99316.00
2022-12-31T22:36:29.483Z,99320.00
2022-12-31T22:38:59.621Z,99311.00
2022-12-31T22:41:29.779Z,99308.00
2022-12-31T22:44:04.136Z,99312.00
2022-12-31T22:46:36.251Z,99319.00
2022-12-31T22:49:05.783Z,99305.00
2022-12-31T22:51:56.902Z,99307.00
2022-12-31T22:54:23.523Z,99305.00
2022-12-31T22:56:52.188Z,99306.00
2022-12-31T22:59:20.846Z,99318.00
2022-12-31T23:01:51.411Z,99310.00
2022-12-31T23:04:20.282Z,99311.00
2022-12-31T23:06:48.947Z,99304.00
2022-12-31T23:09:36.634Z,99291.00
2022-12-31T23:12:09.639Z,99288.00
2022-12-31T23:14:56.509Z,99281.00
2022-12-31T23:17:46.445Z,99282.00
2022-12-31T23:20:36.922Z,99284.00
2022-12-31T23:23:08.829Z,99283.00
2022-12-31T23:25:41.420Z,99286.00
2022-12-31T23:28:13.212Z,99293.00
2022-12-31T23:30:43.219Z,99292.00
2022-12-31T23:33:17.205Z,99278.00
2022-12-31T23:35:46.073Z,99286.00
2022-12-31T23:38:16.771Z,99289.00
2022-12-31T23:40:45.647Z,99290.00
2022-12-31T23:43:22.019Z,99281.00
2022-12-31T23:45:51.454Z,99283.00
2022-12-31T23:48:21.523Z,99284.00
2022-12-31T23:50:53.779Z,99292.00
2022-12-31T23:53:23.908Z,99288.00
2022-12-31T23:55:52.938Z,99277.00
2022-12-31T23:58:22.173Z,99281.00
